sensor_id;sensor_type;location;lat;lon;timestamp;P1;durP1;ratioP1;P2;durP2;ratioP2
56005;SDS011;41888;44.696;10.522;2024-03-22T00:02:06;74.43;;;36.80;;
56005;SDS011;41888;44.696;10.522;2024-03-22T00:04:34;81.22;;;37.53;;
56005;SDS011;41888;44.696;10.522;2024-03-22T00:07:00;72.22;;;34.65;;
56005;SDS011;41888;44.696;10.522;2024-03-22T00:09:27;68.60;;;34.67;;
56005;SDS011;41888;44.696;10.522;2024-03-22T00:11:54;73.90;;;33.30;;
56005;SDS011;41888;44.696;10.522;2024-03-22T00:14:20;60.60;;;30.52;;
56005;SDS011;41888;44.696;10.522;2024-03-22T00:16:46;69.25;;;32.75;;
56005;SDS011;41888;44.696;10.522;2024-03-22T00:19:13;72.63;;;34.20;;
56005;SDS011;41888;44.696;10.522;2024-03-22T00:21:39;65.47;;;30.13;;
56005;SDS011;41888;44.696;10.522;2024-03-22T00:24:05;65.03;;;29.92;;
56005;SDS011;41888;44.696;10.522;2024-03-22T00:26:31;69.50;;;32.38;;
56005;SDS011;41888;44.696;10.522;2024-03-22T00:28:58;74.18;;;35.22;;
56005;SDS011;41888;44.696;10.522;2024-03-22T00:31:24;78.40;;;35.83;;
56005;SDS011;41888;44.696;10.522;2024-03-22T00:33:50;78.85;;;35.53;;
56005;SDS011;41888;44.696;10.522;2024-03-22T00:36:16;68.18;;;30.65;;
56005;SDS011;41888;44.696;10.522;2024-03-22T00:38:42;57.95;;;26.85;;
56005;SDS011;41888;44.696;10.522;2024-03-22T00:41:08;57.83;;;27.60;;
56005;SDS011;41888;44.696;10.522;2024-03-22T00:43:34;59.92;;;30.13;;
56005;SDS011;41888;44.696;10.522;2024-03-22T00:46:00;62.70;;;31.67;;
56005;SDS011;41888;44.696;10.522;2024-03-22T00:48:27;59.70;;;27.73;;
56005;SDS011;41888;44.696;10.522;2024-03-22T00:50:54;55.70;;;29.23;;
56005;SDS011;41888;44.696;10.522;2024-03-22T00:53:20;52.03;;;25.65;;
56005;SDS011;41888;44.696;10.522;2024-03-22T00:55:46;55.70;;;25.92;;
56005;SDS011;41888;44.696;10.522;2024-03-22T00:58:16;62.30;;;29.42;;
56005;SDS011;41888;44.696;10.522;2024-03-22T01:00:44;57.72;;;28.33;;
56005;SDS011;41888;44.696;10.522;2024-03-22T01:03:10;48.13;;;25.35;;
56005;SDS011;41888;44.696;10.522;2024-03-22T01:05:36;54.83;;;27.38;;
56005;SDS011;41888;44.696;10.522;2024-03-22T01:08:03;55.40;;;27.33;;
56005;SDS011;41888;44.696;10.522;2024-03-22T01:10:30;55.10;;;27.20;;
56005;SDS011;41888;44.696;10.522;2024-03-22T01:12:56;54.88;;;26.85;;
56005;SDS011;41888;44.696;10.522;2024-03-22T01:15:22;58.00;;;27.05;;
56005;SDS011;41888;44.696;10.522;2024-03-22T01:17:48;65.25;;;30.13;;
56005;SDS011;41888;44.696;10.522;2024-03-22T01:20:14;65.53;;;29.70;;
56005;SDS011;41888;44.696;10.522;2024-03-22T01:22:40;66.03;;;31.95;;
56005;SDS011;41888;44.696;10.522;2024-03-22T01:25:06;79.00;;;33.78;;
56005;SDS011;41888;44.696;10.522;2024-03-22T01:27:34;70.93;;;33.95;;
56005;SDS011;41888;44.696;10.522;2024-03-22T01:30:01;76.90;;;35.00;;
56005;SDS011;41888;44.696;10.522;2024-03-22T01:32:27;74.53;;;34.72;;
56005;SDS011;41888;44.696;10.522;2024-03-22T01:34:53;78.38;;;36.47;;
56005;SDS011;41888;44.696;10.522;2024-03-22T01:37:20;79.22;;;33.47;;
56005;SDS011;41888;44.696;10.522;2024-03-22T01:39:46;63.83;;;29.27;;
56005;SDS011;41888;44.696;10.522;2024-03-22T01:42:12;62.78;;;29.02;;
56005;SDS011;41888;44.696;10.522;2024-03-22T01:44:38;69.43;;;30.13;;
56005;SDS011;41888;44.696;10.522;2024-03-22T01:47:04;53.63;;;25.58;;
56005;SDS011;41888;44.696;10.522;2024-03-22T01:49:30;45.72;;;23.23;;
56005;SDS011;41888;44.696;10.522;2024-03-22T01:51:56;50.90;;;23.90;;
56005;SDS011;41888;44.696;10.522;2024-03-22T01:54:23;50.70;;;26.33;;
56005;SDS011;41888;44.696;10.522;2024-03-22T01:56:49;49.25;;;25.90;;
56005;SDS011;41888;44.696;10.522;2024-03-22T01:59:15;55.78;;;26.52;;
56005;SDS011;41888;44.696;10.522;2024-03-22T02:01:42;53.70;;;26.95;;
56005;SDS011;41888;44.696;10.522;2024-03-22T02:04:08;51.75;;;26.58;;
56005;SDS011;41888;44.696;10.522;2024-03-22T02:06:35;62.20;;;31.10;;
56005;SDS011;41888;44.696;10.522;2024-03-22T02:09:01;66.43;;;31.02;;
56005;SDS011;41888;44.696;10.522;2024-03-22T02:11:29;74.85;;;31.15;;
56005;SDS011;41888;44.696;10.522;2024-03-22T02:13:56;70.35;;;31.67;;
56005;SDS011;41888;44.696;10.522;2024-03-22T02:16:22;63.53;;;30.98;;
56005;SDS011;41888;44.696;10.522;2024-03-22T02:18:49;64.97;;;30.05;;
56005;SDS011;41888;44.696;10.522;2024-03-22T02:21:15;61.50;;;29.60;;
56005;SDS011;41888;44.696;10.522;2024-03-22T02:23:41;66.78;;;30.95;;
56005;SDS011;41888;44.696;10.522;2024-03-22T02:26:07;67.75;;;31.25;;
56005;SDS011;41888;44.696;10.522;2024-03-22T02:28:34;54.50;;;25.77;;
56005;SDS011;41888;44.696;10.522;2024-03-22T02:31:01;66.82;;;33.08;;
56005;SDS011;41888;44.696;10.522;2024-03-22T02:33:28;71.80;;;30.70;;
56005;SDS011;41888;44.696;10.522;2024-03-22T02:35:54;58.17;;;28.83;;
56005;SDS011;41888;44.696;10.522;2024-03-22T02:38:21;61.55;;;27.95;;
56005;SDS011;41888;44.696;10.522;2024-03-22T02:40:48;72.05;;;32.03;;
56005;SDS011;41888;44.696;10.522;2024-03-22T02:43:15;63.33;;;28.77;;
56005;SDS011;41888;44.696;10.522;2024-03-22T02:45:46;76.80;;;32.50;;
56005;SDS011;41888;44.696;10.522;2024-03-22T02:48:13;56.53;;;27.95;;
56005;SDS011;41888;44.696;10.522;2024-03-22T02:50:39;56.22;;;29.20;;
56005;SDS011;41888;44.696;10.522;2024-03-22T02:53:05;73.40;;;30.65;;
56005;SDS011;41888;44.696;10.522;2024-03-22T02:55:40;69.25;;;30.70;;
56005;SDS011;41888;44.696;10.522;2024-03-22T02:58:07;57.55;;;27.77;;
56005;SDS011;41888;44.696;10.522;2024-03-22T03:00:37;60.92;;;25.88;;
56005;SDS011;41888;44.696;10.522;2024-03-22T03:03:04;50.78;;;23.83;;
56005;SDS011;41888;44.696;10.522;2024-03-22T03:05:30;64.88;;;30.80;;
56005;SDS011;41888;44.696;10.522;2024-03-22T03:07:57;64.43;;;29.08;;
56005;SDS011;41888;44.696;10.522;2024-03-22T03:10:23;52.25;;;27.02;;
56005;SDS011;41888;44.696;10.522;2024-03-22T03:12:49;64.13;;;27.08;;
56005;SDS011;41888;44.696;10.522;2024-03-22T03:15:15;57.60;;;27.35;;
56005;SDS011;41888;44.696;10.522;2024-03-22T03:17:42;68.55;;;29.98;;
56005;SDS011;41888;44.696;10.522;2024-03-22T03:20:08;71.78;;;31.42;;
56005;SDS011;41888;44.696;10.522;2024-03-22T03:22:35;65.85;;;28.95;;
56005;SDS011;41888;44.696;10.522;2024-03-22T03:25:03;71.18;;;29.63;;
56005;SDS011;41888;44.696;10.522;2024-03-22T03:27:48;77.03;;;31.80;;
56005;SDS011;41888;44.696;10.522;2024-03-22T03:30:14;73.18;;;32.72;;
56005;SDS011;41888;44.696;10.522;2024-03-22T03:32:40;72.35;;;30.20;;
56005;SDS011;41888;44.696;10.522;2024-03-22T03:35:06;54.72;;;26.20;;
56005;SDS011;41888;44.696;10.522;2024-03-22T03:37:34;60.45;;;27.63;;
56005;SDS011;41888;44.696;10.522;2024-03-22T03:40:00;60.25;;;26.20;;
56005;SDS011;41888;44.696;10.522;2024-03-22T03:42:26;57.35;;;25.98;;
56005;SDS011;41888;44.696;10.522;2024-03-22T03:44:52;53.10;;;25.13;;
56005;SDS011;41888;44.696;10.522;2024-03-22T03:47:18;64.82;;;28.58;;
56005;SDS011;41888;44.696;10.522;2024-03-22T03:49:45;86.05;;;36.25;;
56005;SDS011;41888;44.696;10.522;2024-03-22T03:52:11;88.45;;;38.45;;
56005;SDS011;41888;44.696;10.522;2024-03-22T03:54:37;89.35;;;37.63;;
56005;SDS011;41888;44.696;10.522;2024-03-22T03:57:03;94.25;;;37.60;;
56005;SDS011;41888;44.696;10.522;2024-03-22T03:59:30;66.35;;;30.25;;
56005;SDS011;41888;44.696;10.522;2024-03-22T04:01:56;68.78;;;30.52;;
56005;SDS011;41888;44.696;10.522;2024-03-22T04:04:22;73.97;;;32.13;;
56005;SDS011;41888;44.696;10.522;2024-03-22T04:06:48;75.45;;;32.88;;
56005;SDS011;41888;44.696;10.522;2024-03-22T04:09:14;68.20;;;30.98;;
56005;SDS011;41888;44.696;10.522;2024-03-22T04:11:40;71.82;;;31.95;;
56005;SDS011;41888;44.696;10.522;2024-03-22T04:14:06;62.25;;;27.10;;
56005;SDS011;41888;44.696;10.522;2024-03-22T04:16:32;65.32;;;28.20;;
56005;SDS011;41888;44.696;10.522;2024-03-22T04:18:59;76.50;;;33.63;;
56005;SDS011;41888;44.696;10.522;2024-03-22T04:21:25;80.10;;;34.60;;
56005;SDS011;41888;44.696;10.522;2024-03-22T04:23:51;91.68;;;36.10;;
56005;SDS011;41888;44.696;10.522;2024-03-22T04:26:17;85.13;;;36.95;;
56005;SDS011;41888;44.696;10.522;2024-03-22T04:28:43;77.90;;;35.35;;
56005;SDS011;41888;44.696;10.522;2024-03-22T04:31:09;91.30;;;37.58;;
56005;SDS011;41888;44.696;10.522;2024-03-22T04:33:36;83.72;;;36.00;;
56005;SDS011;41888;44.696;10.522;2024-03-22T04:36:03;92.65;;;36.80;;
56005;SDS011;41888;44.696;10.522;2024-03-22T04:38:30;80.00;;;32.63;;
56005;SDS011;41888;44.696;10.522;2024-03-22T04:40:56;79.57;;;33.00;;
56005;SDS011;41888;44.696;10.522;2024-03-22T04:43:23;77.50;;;32.40;;
56005;SDS011;41888;44.696;10.522;2024-03-22T04:45:50;81.18;;;36.13;;
56005;SDS011;41888;44.696;10.522;2024-03-22T04:48:17;83.85;;;35.90;;
56005;SDS011;41888;44.696;10.522;2024-03-22T04:50:44;91.68;;;37.05;;
56005;SDS011;41888;44.696;10.522;2024-03-22T04:53:10;89.53;;;36.80;;
56005;SDS011;41888;44.696;10.522;2024-03-22T04:55:37;86.80;;;36.15;;
56005;SDS011;41888;44.696;10.522;2024-03-22T04:58:03;101.45;;;37.05;;
56005;SDS011;41888;44.696;10.522;2024-03-22T05:00:29;102.15;;;41.67;;
56005;SDS011;41888;44.696;10.522;2024-03-22T05:02:55;116.30;;;44.22;;
56005;SDS011;41888;44.696;10.522;2024-03-22T05:05:21;112.95;;;43.15;;
56005;SDS011;41888;44.696;10.522;2024-03-22T05:07:48;118.95;;;43.45;;
56005;SDS011;41888;44.696;10.522;2024-03-22T05:10:14;109.85;;;45.45;;
56005;SDS011;41888;44.696;10.522;2024-03-22T05:12:41;105.60;;;38.58;;
56005;SDS011;41888;44.696;10.522;2024-03-22T05:15:07;94.65;;;38.17;;
56005;SDS011;41888;44.696;10.522;2024-03-22T05:17:34;106.55;;;36.50;;
56005;SDS011;41888;44.696;10.522;2024-03-22T05:20:00;81.13;;;35.08;;
56005;SDS011;41888;44.696;10.522;2024-03-22T05:22:30;75.68;;;33.40;;
56005;SDS011;41888;44.696;10.522;2024-03-22T05:24:57;69.18;;;31.23;;
56005;SDS011;41888;44.696;10.522;2024-03-22T05:27:23;66.75;;;27.98;;
56005;SDS011;41888;44.696;10.522;2024-03-22T05:29:49;73.20;;;30.20;;
56005;SDS011;41888;44.696;10.522;2024-03-22T05:32:15;67.78;;;28.30;;
56005;SDS011;41888;44.696;10.522;2024-03-22T05:34:41;69.85;;;30.90;;
56005;SDS011;41888;44.696;10.522;2024-03-22T05:37:07;59.53;;;26.80;;
56005;SDS011;41888;44.696;10.522;2024-03-22T05:39:34;61.38;;;27.80;;
56005;SDS011;41888;44.696;10.522;2024-03-22T05:42:00;60.50;;;27.63;;
56005;SDS011;41888;44.696;10.522;2024-03-22T05:44:26;60.30;;;26.30;;
56005;SDS011;41888;44.696;10.522;2024-03-22T05:46:52;59.63;;;27.27;;
56005;SDS011;41888;44.696;10.522;2024-03-22T05:49:18;55.22;;;25.58;;
56005;SDS011;41888;44.696;10.522;2024-03-22T05:51:45;53.28;;;25.13;;
56005;SDS011;41888;44.696;10.522;2024-03-22T05:54:11;42.17;;;22.55;;
56005;SDS011;41888;44.696;10.522;2024-03-22T05:56:37;46.05;;;21.83;;
56005;SDS011;41888;44.696;10.522;2024-03-22T05:59:03;52.67;;;24.67;;
56005;SDS011;41888;44.696;10.522;2024-03-22T06:01:29;49.50;;;23.55;;
56005;SDS011;41888;44.696;10.522;2024-03-22T06:03:55;50.90;;;23.60;;
56005;SDS011;41888;44.696;10.522;2024-03-22T06:06:21;47.88;;;23.27;;
56005;SDS011;41888;44.696;10.522;2024-03-22T06:08:50;48.05;;;24.10;;
56005;SDS011;41888;44.696;10.522;2024-03-22T06:11:19;46.78;;;24.25;;
56005;SDS011;41888;44.696;10.522;2024-03-22T06:13:46;47.25;;;21.48;;
56005;SDS011;41888;44.696;10.522;2024-03-22T06:16:12;53.25;;;26.60;;
56005;SDS011;41888;44.696;10.522;2024-03-22T06:18:39;47.38;;;23.95;;
56005;SDS011;41888;44.696;10.522;2024-03-22T06:21:05;52.22;;;23.67;;
56005;SDS011;41888;44.696;10.522;2024-03-22T06:23:32;48.60;;;20.75;;
56005;SDS011;41888;44.696;10.522;2024-03-22T06:25:59;40.05;;;22.00;;
56005;SDS011;41888;44.696;10.522;2024-03-22T06:28:27;42.33;;;22.10;;
56005;SDS011;41888;44.696;10.522;2024-03-22T06:30:53;47.10;;;22.30;;
56005;SDS011;41888;44.696;10.522;2024-03-22T06:33:20;45.67;;;23.58;;
56005;SDS011;41888;44.696;10.522;2024-03-22T06:35:46;42.63;;;21.13;;
56005;SDS011;41888;44.696;10.522;2024-03-22T06:38:12;43.10;;;22.40;;
56005;SDS011;41888;44.696;10.522;2024-03-22T06:40:39;38.85;;;21.50;;
56005;SDS011;41888;44.696;10.522;2024-03-22T06:43:05;40.15;;;20.27;;
56005;SDS011;41888;44.696;10.522;2024-03-22T06:45:31;39.90;;;21.95;;
56005;SDS011;41888;44.696;10.522;2024-03-22T06:47:57;36.15;;;20.02;;
56005;SDS011;41888;44.696;10.522;2024-03-22T06:50:23;37.58;;;20.95;;
56005;SDS011;41888;44.696;10.522;2024-03-22T06:52:55;36.97;;;18.75;;
56005;SDS011;41888;44.696;10.522;2024-03-22T06:55:21;37.28;;;20.23;;
56005;SDS011;41888;44.696;10.522;2024-03-22T06:57:48;37.47;;;20.25;;
56005;SDS011;41888;44.696;10.522;2024-03-22T07:00:16;38.35;;;19.27;;
56005;SDS011;41888;44.696;10.522;2024-03-22T07:02:43;35.65;;;19.17;;
56005;SDS011;41888;44.696;10.522;2024-03-22T07:05:09;35.08;;;18.10;;
56005;SDS011;41888;44.696;10.522;2024-03-22T07:07:36;35.42;;;17.50;;
56005;SDS011;41888;44.696;10.522;2024-03-22T07:10:02;39.17;;;17.33;;
56005;SDS011;41888;44.696;10.522;2024-03-22T07:12:30;36.47;;;17.67;;
56005;SDS011;41888;44.696;10.522;2024-03-22T07:14:57;34.15;;;17.88;;
56005;SDS011;41888;44.696;10.522;2024-03-22T07:17:24;34.60;;;18.55;;
56005;SDS011;41888;44.696;10.522;2024-03-22T07:19:51;34.38;;;17.38;;
56005;SDS011;41888;44.696;10.522;2024-03-22T07:22:18;37.55;;;18.52;;
56005;SDS011;41888;44.696;10.522;2024-03-22T07:24:44;36.67;;;17.75;;
56005;SDS011;41888;44.696;10.522;2024-03-22T07:27:11;33.47;;;18.80;;
56005;SDS011;41888;44.696;10.522;2024-03-22T07:29:37;31.83;;;18.65;;
56005;SDS011;41888;44.696;10.522;2024-03-22T07:32:03;31.27;;;17.75;;
56005;SDS011;41888;44.696;10.522;2024-03-22T07:34:30;31.80;;;18.02;;
56005;SDS011;41888;44.696;10.522;2024-03-22T07:36:57;36.15;;;18.27;;
56005;SDS011;41888;44.696;10.522;2024-03-22T07:39:24;35.38;;;17.02;;
56005;SDS011;41888;44.696;10.522;2024-03-22T07:41:50;34.22;;;18.10;;
56005;SDS011;41888;44.696;10.522;2024-03-22T07:44:16;30.10;;;17.23;;
56005;SDS011;41888;44.696;10.522;2024-03-22T07:46:46;31.58;;;17.48;;
56005;SDS011;41888;44.696;10.522;2024-03-22T07:49:12;31.13;;;17.98;;
56005;SDS011;41888;44.696;10.522;2024-03-22T07:51:38;31.30;;;17.20;;
56005;SDS011;41888;44.696;10.522;2024-03-22T07:54:04;33.60;;;18.10;;
56005;SDS011;41888;44.696;10.522;2024-03-22T07:56:31;32.22;;;18.48;;
56005;SDS011;41888;44.696;10.522;2024-03-22T07:58:57;30.52;;;17.63;;
56005;SDS011;41888;44.696;10.522;2024-03-22T08:01:23;38.28;;;18.33;;
56005;SDS011;41888;44.696;10.522;2024-03-22T08:03:50;33.20;;;18.38;;
56005;SDS011;41888;44.696;10.522;2024-03-22T08:06:16;34.72;;;17.60;;
56005;SDS011;41888;44.696;10.522;2024-03-22T08:08:43;37.80;;;19.23;;
56005;SDS011;41888;44.696;10.522;2024-03-22T08:11:09;30.70;;;18.70;;
56005;SDS011;41888;44.696;10.522;2024-03-22T08:13:35;39.25;;;17.98;;
56005;SDS011;41888;44.696;10.522;2024-03-22T08:16:02;36.13;;;20.25;;
56005;SDS011;41888;44.696;10.522;2024-03-22T08:18:28;39.15;;;19.40;;
56005;SDS011;41888;44.696;10.522;2024-03-22T08:20:54;36.53;;;19.33;;
56005;SDS011;41888;44.696;10.522;2024-03-22T08:23:20;40.65;;;20.05;;
56005;SDS011;41888;44.696;10.522;2024-03-22T08:25:48;38.67;;;19.85;;
56005;SDS011;41888;44.696;10.522;2024-03-22T08:28:14;36.70;;;21.40;;
56005;SDS011;41888;44.696;10.522;2024-03-22T08:30:41;40.95;;;21.45;;
56005;SDS011;41888;44.696;10.522;2024-03-22T08:33:08;40.60;;;21.60;;
56005;SDS011;41888;44.696;10.522;2024-03-22T08:35:35;39.38;;;21.67;;
56005;SDS011;41888;44.696;10.522;2024-03-22T08:38:01;39.92;;;21.25;;
56005;SDS011;41888;44.696;10.522;2024-03-22T08:40:27;42.00;;;23.27;;
56005;SDS011;41888;44.696;10.522;2024-03-22T08:42:54;45.05;;;23.80;;
56005;SDS011;41888;44.696;10.522;2024-03-22T08:45:20;38.35;;;21.63;;
56005;SDS011;41888;44.696;10.522;2024-03-22T08:47:46;39.15;;;21.95;;
56005;SDS011;41888;44.696;10.522;2024-03-22T08:50:12;37.85;;;21.23;;
56005;SDS011;41888;44.696;10.522;2024-03-22T08:52:39;40.90;;;23.35;;
56005;SDS011;41888;44.696;10.522;2024-03-22T08:55:05;44.42;;;24.23;;
56005;SDS011;41888;44.696;10.522;2024-03-22T08:57:32;40.20;;;23.38;;
56005;SDS011;41888;44.696;10.522;2024-03-22T08:59:58;53.65;;;26.52;;
56005;SDS011;41888;44.696;10.522;2024-03-22T09:02:24;47.05;;;25.52;;
56005;SDS011;41888;44.696;10.522;2024-03-22T09:04:51;41.92;;;24.65;;
56005;SDS011;41888;44.696;10.522;2024-03-22T09:07:19;45.83;;;24.20;;
56005;SDS011;41888;44.696;10.522;2024-03-22T09:09:45;41.83;;;24.85;;
56005;SDS011;41888;44.696;10.522;2024-03-22T09:12:11;45.25;;;24.80;;
56005;SDS011;41888;44.696;10.522;2024-03-22T09:14:37;45.97;;;23.50;;
56005;SDS011;41888;44.696;10.522;2024-03-22T09:17:03;45.90;;;26.77;;
56005;SDS011;41888;44.696;10.522;2024-03-22T09:19:29;50.53;;;26.83;;
56005;SDS011;41888;44.696;10.522;2024-03-22T09:21:56;46.72;;;27.27;;
56005;SDS011;41888;44.696;10.522;2024-03-22T09:24:22;45.30;;;25.67;;
56005;SDS011;41888;44.696;10.522;2024-03-22T09:26:49;45.15;;;25.67;;
56005;SDS011;41888;44.696;10.522;2024-03-22T09:29:15;47.10;;;26.15;;
56005;SDS011;41888;44.696;10.522;2024-03-22T09:31:42;42.13;;;25.52;;
56005;SDS011;41888;44.696;10.522;2024-03-22T09:34:09;39.45;;;24.95;;
56005;SDS011;41888;44.696;10.522;2024-03-22T09:36:37;43.85;;;25.45;;
56005;SDS011;41888;44.696;10.522;2024-03-22T09:39:03;41.50;;;24.20;;
56005;SDS011;41888;44.696;10.522;2024-03-22T09:41:31;38.78;;;23.75;;
56005;SDS011;41888;44.696;10.522;2024-03-22T09:43:58;38.45;;;23.60;;
56005;SDS011;41888;44.696;10.522;2024-03-22T09:46:27;41.78;;;24.60;;
56005;SDS011;41888;44.696;10.522;2024-03-22T09:48:54;42.65;;;24.05;;
56005;SDS011;41888;44.696;10.522;2024-03-22T09:51:23;39.13;;;24.27;;
56005;SDS011;41888;44.696;10.522;2024-03-22T09:53:49;38.63;;;26.05;;
56005;SDS011;41888;44.696;10.522;2024-03-22T09:56:18;41.70;;;25.60;;
56005;SDS011;41888;44.696;10.522;2024-03-22T09:58:47;38.72;;;24.38;;
56005;SDS011;41888;44.696;10.522;2024-03-22T10:01:14;41.28;;;24.65;;
56005;SDS011;41888;44.696;10.522;2024-03-22T10:03:41;46.83;;;24.98;;
56005;SDS011;41888;44.696;10.522;2024-03-22T10:06:09;44.55;;;25.92;;
56005;SDS011;41888;44.696;10.522;2024-03-22T10:08:35;38.70;;;23.40;;
56005;SDS011;41888;44.696;10.522;2024-03-22T10:11:01;41.72;;;24.27;;
56005;SDS011;41888;44.696;10.522;2024-03-22T10:13:28;43.33;;;24.95;;
56005;SDS011;41888;44.696;10.522;2024-03-22T10:15:54;40.40;;;24.05;;
56005;SDS011;41888;44.696;10.522;2024-03-22T10:18:21;40.47;;;24.13;;
56005;SDS011;41888;44.696;10.522;2024-03-22T10:20:58;42.53;;;24.65;;
56005;SDS011;41888;44.696;10.522;2024-03-22T10:23:25;44.05;;;25.08;;
56005;SDS011;41888;44.696;10.522;2024-03-22T10:25:51;44.78;;;27.25;;
56005;SDS011;41888;44.696;10.522;2024-03-22T10:28:17;45.95;;;26.90;;
56005;SDS011;41888;44.696;10.522;2024-03-22T10:30:44;48.20;;;30.23;;
56005;SDS011;41888;44.696;10.522;2024-03-22T10:33:12;45.15;;;26.67;;
56005;SDS011;41888;44.696;10.522;2024-03-22T10:35:40;45.15;;;27.58;;
56005;SDS011;41888;44.696;10.522;2024-03-22T10:38:09;49.58;;;29.10;;
56005;SDS011;41888;44.696;10.522;2024-03-22T10:40:38;47.85;;;25.88;;
56005;SDS011;41888;44.696;10.522;2024-03-22T10:43:09;45.30;;;26.23;;
56005;SDS011;41888;44.696;10.522;2024-03-22T10:45:36;45.85;;;25.65;;
56005;SDS011;41888;44.696;10.522;2024-03-22T10:48:05;43.85;;;24.38;;
56005;SDS011;41888;44.696;10.522;2024-03-22T10:50:34;45.50;;;25.00;;
56005;SDS011;41888;44.696;10.522;2024-03-22T10:53:04;43.60;;;25.35;;
56005;SDS011;41888;44.696;10.522;2024-03-22T10:55:34;44.28;;;25.75;;
56005;SDS011;41888;44.696;10.522;2024-03-22T10:58:02;44.38;;;26.95;;
56005;SDS011;41888;44.696;10.522;2024-03-22T11:00:33;46.40;;;25.75;;
56005;SDS011;41888;44.696;10.522;2024-03-22T11:03:03;49.22;;;27.13;;
56005;SDS011;41888;44.696;10.522;2024-03-22T11:05:29;46.13;;;26.77;;
56005;SDS011;41888;44.696;10.522;2024-03-22T11:07:59;46.20;;;25.70;;
56005;SDS011;41888;44.696;10.522;2024-03-22T11:10:28;43.65;;;26.30;;
56005;SDS011;41888;44.696;10.522;2024-03-22T11:12:56;41.75;;;24.27;;
56005;SDS011;41888;44.696;10.522;2024-03-22T11:15:30;49.17;;;27.92;;
56005;SDS011;41888;44.696;10.522;2024-03-22T11:17:57;48.60;;;27.42;;
56005;SDS011;41888;44.696;10.522;2024-03-22T11:20:24;54.15;;;30.75;;
56005;SDS011;41888;44.696;10.522;2024-03-22T11:22:51;44.75;;;25.38;;
56005;SDS011;41888;44.696;10.522;2024-03-22T11:25:17;46.15;;;25.55;;
56005;SDS011;41888;44.696;10.522;2024-03-22T11:27:44;43.67;;;27.33;;
56005;SDS011;41888;44.696;10.522;2024-03-22T11:30:11;42.65;;;25.23;;
56005;SDS011;41888;44.696;10.522;2024-03-22T11:32:38;44.33;;;25.95;;
56005;SDS011;41888;44.696;10.522;2024-03-22T11:35:11;42.72;;;25.00;;
56005;SDS011;41888;44.696;10.522;2024-03-22T11:37:38;44.30;;;24.55;;
56005;SDS011;41888;44.696;10.522;2024-03-22T11:40:06;38.08;;;22.42;;
56005;SDS011;41888;44.696;10.522;2024-03-22T11:42:37;39.25;;;22.98;;
56005;SDS011;41888;44.696;10.522;2024-03-22T11:45:10;40.00;;;23.15;;
56005;SDS011;41888;44.696;10.522;2024-03-22T11:47:39;40.67;;;23.45;;
56005;SDS011;41888;44.696;10.522;2024-03-22T11:50:05;35.28;;;20.67;;
56005;SDS011;41888;44.696;10.522;2024-03-22T11:52:31;39.28;;;22.92;;
56005;SDS011;41888;44.696;10.522;2024-03-22T11:54:59;34.47;;;21.13;;
56005;SDS011;41888;44.696;10.522;2024-03-22T11:57:26;34.20;;;19.08;;
56005;SDS011;41888;44.696;10.522;2024-03-22T11:59:58;41.97;;;21.83;;
56005;SDS011;41888;44.696;10.522;2024-03-22T12:02:25;29.60;;;17.35;;
56005;SDS011;41888;44.696;10.522;2024-03-22T12:04:52;29.65;;;17.27;;
56005;SDS011;41888;44.696;10.522;2024-03-22T12:07:18;35.38;;;18.98;;
56005;SDS011;41888;44.696;10.522;2024-03-22T12:09:44;31.38;;;18.75;;
56005;SDS011;41888;44.696;10.522;2024-03-22T12:12:13;32.83;;;17.45;;
56005;SDS011;41888;44.696;10.522;2024-03-22T12:14:39;26.15;;;16.23;;
56005;SDS011;41888;44.696;10.522;2024-03-22T12:17:06;19.05;;;11.45;;
56005;SDS011;41888;44.696;10.522;2024-03-22T12:19:32;18.42;;;11.40;;
56005;SDS011;41888;44.696;10.522;2024-03-22T12:21:59;20.33;;;10.65;;
56005;SDS011;41888;44.696;10.522;2024-03-22T12:24:25;18.13;;;10.57;;
56005;SDS011;41888;44.696;10.522;2024-03-22T12:26:52;20.83;;;11.68;;
56005;SDS011;41888;44.696;10.522;2024-03-22T12:29:18;17.65;;;9.90;;
56005;SDS011;41888;44.696;10.522;2024-03-22T12:31:45;22.13;;;12.68;;
56005;SDS011;41888;44.696;10.522;2024-03-22T12:34:12;26.95;;;15.02;;
56005;SDS011;41888;44.696;10.522;2024-03-22T12:36:38;26.17;;;14.38;;
56005;SDS011;41888;44.696;10.522;2024-03-22T12:39:04;20.95;;;12.15;;
56005;SDS011;41888;44.696;10.522;2024-03-22T12:41:31;22.85;;;11.95;;
56005;SDS011;41888;44.696;10.522;2024-03-22T12:43:58;20.70;;;11.45;;
56005;SDS011;41888;44.696;10.522;2024-03-22T12:46:25;19.10;;;12.25;;
56005;SDS011;41888;44.696;10.522;2024-03-22T12:48:52;20.70;;;12.32;;
56005;SDS011;41888;44.696;10.522;2024-03-22T12:51:19;18.08;;;11.65;;
56005;SDS011;41888;44.696;10.522;2024-03-22T12:53:45;21.60;;;13.10;;
56005;SDS011;41888;44.696;10.522;2024-03-22T12:56:11;24.30;;;12.73;;
56005;SDS011;41888;44.696;10.522;2024-03-22T12:58:38;24.25;;;12.50;;
56005;SDS011;41888;44.696;10.522;2024-03-22T13:01:07;21.02;;;12.30;;
56005;SDS011;41888;44.696;10.522;2024-03-22T13:03:36;25.63;;;14.32;;
56005;SDS011;41888;44.696;10.522;2024-03-22T13:06:03;23.70;;;13.02;;
56005;SDS011;41888;44.696;10.522;2024-03-22T13:08:30;22.48;;;12.93;;
56005;SDS011;41888;44.696;10.522;2024-03-22T13:10:56;25.23;;;12.95;;
56005;SDS011;41888;44.696;10.522;2024-03-22T13:13:23;21.10;;;12.93;;
56005;SDS011;41888;44.696;10.522;2024-03-22T13:15:49;20.73;;;13.25;;
56005;SDS011;41888;44.696;10.522;2024-03-22T13:18:15;23.83;;;13.27;;
56005;SDS011;41888;44.696;10.522;2024-03-22T13:20:41;19.58;;;11.52;;
56005;SDS011;41888;44.696;10.522;2024-03-22T13:23:07;20.88;;;13.63;;
56005;SDS011;41888;44.696;10.522;2024-03-22T13:25:36;21.85;;;12.70;;
56005;SDS011;41888;44.696;10.522;2024-03-22T13:28:03;23.08;;;12.80;;
56005;SDS011;41888;44.696;10.522;2024-03-22T13:30:32;20.30;;;11.30;;
56005;SDS011;41888;44.696;10.522;2024-03-22T13:33:00;21.30;;;12.73;;
56005;SDS011;41888;44.696;10.522;2024-03-22T13:35:26;23.08;;;12.82;;
56005;SDS011;41888;44.696;10.522;2024-03-22T13:37:53;20.33;;;12.70;;
56005;SDS011;41888;44.696;10.522;2024-03-22T13:40:19;20.55;;;12.57;;
56005;SDS011;41888;44.696;10.522;2024-03-22T13:42:45;18.40;;;10.40;;
56005;SDS011;41888;44.696;10.522;2024-03-22T13:45:11;17.27;;;9.07;;
56005;SDS011;41888;44.696;10.522;2024-03-22T13:47:37;20.48;;;10.00;;
56005;SDS011;41888;44.696;10.522;2024-03-22T13:50:05;18.63;;;10.40;;
56005;SDS011;41888;44.696;10.522;2024-03-22T13:52:35;15.20;;;9.82;;
56005;SDS011;41888;44.696;10.522;2024-03-22T13:55:01;15.07;;;8.43;;
56005;SDS011;41888;44.696;10.522;2024-03-22T13:57:30;20.33;;;10.93;;
56005;SDS011;41888;44.696;10.522;2024-03-22T13:59:58;15.95;;;9.00;;
56005;SDS011;41888;44.696;10.522;2024-03-22T14:02:27;14.77;;;8.50;;
56005;SDS011;41888;44.696;10.522;2024-03-22T14:04:53;14.48;;;9.15;;
56005;SDS011;41888;44.696;10.522;2024-03-22T14:07:19;18.77;;;11.00;;